sensor_id;sensor_type;location;lat;lon;timestamp;pressure;altitude;pressure_sealevel;temperature;humidity
74327;BME280;62745;51.060;13.786;2023-04-30T00:01:47;100596.84;;;10.75;90.19
74327;BME280;62745;51.060;13.786;2023-04-30T00:04:12;100603.94;;;10.53;90.50
74327;BME280;62745;51.060;13.786;2023-04-30T00:06:38;100601.56;;;10.43;89.92
74327;BME280;62745;51.060;13.786;2023-04-30T00:09:03;100611.03;;;10.46;90.14
74327;BME280;62745;51.060;13.786;2023-04-30T00:11:28;100603.63;;;10.33;90.28
74327;BME280;62745;51.060;13.786;2023-04-30T00:13:54;100608.06;;;10.26;90.39
74327;BME280;62745;51.060;13.786;2023-04-30T00:16:21;100601.56;;;10.20;91.06
74327;BME280;62745;51.060;13.786;2023-04-30T00:18:46;100612.28;;;10.35;90.89
74327;BME280;62745;51.060;13.786;2023-04-30T00:21:11;100615.25;;;10.40;91.40
74327;BME280;62745;51.060;13.786;2023-04-30T00:23:36;100607.41;;;10.39;91.54
74327;BME280;62745;51.060;13.786;2023-04-30T00:26:02;100614.41;;;10.40;92.58
74327;BME280;62745;51.060;13.786;2023-04-30T00:28:27;100613.88;;;10.44;91.75
74327;BME280;62745;51.060;13.786;2023-04-30T00:30:52;100615.00;;;10.50;91.59
74327;BME280;62745;51.060;13.786;2023-04-30T00:33:17;100618.38;;;10.29;92.20
74327;BME280;62745;51.060;13.786;2023-04-30T00:35:43;100620.16;;;10.14;91.97
74327;BME280;62745;51.060;13.786;2023-04-30T00:38:08;100611.38;;;10.05;92.49
74327;BME280;62745;51.060;13.786;2023-04-30T00:40:34;100616.13;;;9.95;93.26
74327;BME280;62745;51.060;13.786;2023-04-30T00:42:59;100612.88;;;9.85;91.71
74327;BME280;62745;51.060;13.786;2023-04-30T00:45:25;100620.44;;;9.73;88.24
74327;BME280;62745;51.060;13.786;2023-04-30T00:47:50;100628.13;;;9.76;86.33
74327;BME280;62745;51.060;13.786;2023-04-30T00:50:15;100628.78;;;9.78;85.22
74327;BME280;62745;51.060;13.786;2023-04-30T00:52:41;100627.59;;;9.81;84.01
74327;BME280;62745;51.060;13.786;2023-04-30T00:55:07;100629.63;;;9.71;83.59
74327;BME280;62745;51.060;13.786;2023-04-30T00:57:34;100629.88;;;9.61;83.55
74327;BME280;62745;51.060;13.786;2023-04-30T01:00:00;100645.53;;;9.64;82.68
74327;BME280;62745;51.060;13.786;2023-04-30T01:02:26;100646.28;;;9.50;82.79
74327;BME280;62745;51.060;13.786;2023-04-30T01:04:51;100639.09;;;9.50;83.68
74327;BME280;62745;51.060;13.786;2023-04-30T01:07:17;100656.50;;;9.38;83.18
74327;BME280;62745;51.060;13.786;2023-04-30T01:09:42;100653.72;;;9.31;83.18
74327;BME280;62745;51.060;13.786;2023-04-30T01:12:19;100658.56;;;9.28;84.20
74327;BME280;62745;51.060;13.786;2023-04-30T01:18:03;100663.25;;;9.18;85.98
74327;BME280;62745;51.060;13.786;2023-04-30T01:20:31;100666.44;;;9.13;86.59
74327;BME280;62745;51.060;13.786;2023-04-30T01:23:21;100666.16;;;9.08;87.37
74327;BME280;62745;51.060;13.786;2023-04-30T01:26:10;100672.81;;;9.04;86.78
74327;BME280;62745;51.060;13.786;2023-04-30T01:28:38;100670.69;;;8.91;87.61
74327;BME280;62745;51.060;13.786;2023-04-30T01:31:13;100677.16;;;8.89;87.20
74327;BME280;62745;51.060;13.786;2023-04-30T01:33:38;100683.38;;;8.81;87.12
74327;BME280;62745;51.060;13.786;2023-04-30T01:36:20;100678.22;;;8.80;88.46
74327;BME280;62745;51.060;13.786;2023-04-30T01:39:35;100679.56;;;8.76;88.24
74327;BME280;62745;51.060;13.786;2023-04-30T01:42:05;100688.22;;;8.78;88.60
74327;BME280;62745;51.060;13.786;2023-04-30T01:47:13;100689.72;;;8.64;88.27
74327;BME280;62745;51.060;13.786;2023-04-30T01:50:00;100691.91;;;8.52;89.09
74327;BME280;62745;51.060;13.786;2023-04-30T01:52:38;100698.38;;;8.50;88.84
74327;BME280;62745;51.060;13.786;2023-04-30T01:55:11;100695.22;;;8.38;89.23
74327;BME280;62745;51.060;13.786;2023-04-30T01:57:42;100709.22;;;8.48;89.99
74327;BME280;62745;51.060;13.786;2023-04-30T02:00:08;100714.84;;;8.53;89.39
74327;BME280;62745;51.060;13.786;2023-04-30T02:02:35;100715.03;;;8.60;89.08
74327;BME280;62745;51.060;13.786;2023-04-30T02:05:00;100719.19;;;8.38;89.72
74327;BME280;62745;51.060;13.786;2023-04-30T02:07:36;100716.81;;;8.19;90.49
74327;BME280;62745;51.060;13.786;2023-04-30T02:10:04;100719.81;;;8.15;91.25
74327;BME280;62745;51.060;13.786;2023-04-30T02:12:29;100730.28;;;8.09;91.90
74327;BME280;62745;51.060;13.786;2023-04-30T02:14:55;100726.63;;;8.10;92.08
74327;BME280;62745;51.060;13.786;2023-04-30T02:17:20;100742.41;;;7.95;93.16
74327;BME280;62745;51.060;13.786;2023-04-30T02:19:45;100742.69;;;7.84;93.81
74327;BME280;62745;51.060;13.786;2023-04-30T02:22:10;100739.69;;;7.79;94.73
74327;BME280;62745;51.060;13.786;2023-04-30T02:24:36;100754.63;;;7.72;95.06
74327;BME280;62745;51.060;13.786;2023-04-30T02:27:01;100755.44;;;7.64;96.15
74327;BME280;62745;51.060;13.786;2023-04-30T02:29:26;100764.69;;;7.52;96.71
74327;BME280;62745;51.060;13.786;2023-04-30T02:31:52;100766.84;;;7.48;96.94
74327;BME280;62745;51.060;13.786;2023-04-30T02:34:17;100759.22;;;7.53;97.51
74327;BME280;62745;51.060;13.786;2023-04-30T02:36:42;100773.00;;;7.49;96.71
74327;BME280;62745;51.060;13.786;2023-04-30T02:39:07;100771.66;;;7.53;97.16
74327;BME280;62745;51.060;13.786;2023-04-30T02:41:33;100774.97;;;7.47;97.06
74327;BME280;62745;51.060;13.786;2023-04-30T02:43:58;100778.72;;;7.36;96.86
74327;BME280;62745;51.060;13.786;2023-04-30T02:46:23;100771.31;;;7.48;96.39
74327;BME280;62745;51.060;13.786;2023-04-30T02:48:48;100781.78;;;7.41;96.36
74327;BME280;62745;51.060;13.786;2023-04-30T02:51:14;100785.72;;;7.37;96.04
74327;BME280;62745;51.060;13.786;2023-04-30T02:53:39;100784.06;;;7.36;96.29
74327;BME280;62745;51.060;13.786;2023-04-30T02:56:05;100792.81;;;7.29;96.07
74327;BME280;62745;51.060;13.786;2023-04-30T02:58:30;100788.44;;;7.53;95.59
74327;BME280;62745;51.060;13.786;2023-04-30T03:00:55;100794.00;;;7.34;96.02
74327;BME280;62745;51.060;13.786;2023-04-30T03:03:21;100797.84;;;7.06;96.86
74327;BME280;62745;51.060;13.786;2023-04-30T03:05:46;100800.28;;;6.99;96.59
74327;BME280;62745;51.060;13.786;2023-04-30T03:08:11;100801.78;;;7.02;96.85
74327;BME280;62745;51.060;13.786;2023-04-30T03:10:37;100810.00;;;6.90;97.14
74327;BME280;62745;51.060;13.786;2023-04-30T03:13:02;100807.34;;;6.90;97.33
74327;BME280;62745;51.060;13.786;2023-04-30T03:15:27;100809.31;;;6.88;97.31
74327;BME280;62745;51.060;13.786;2023-04-30T03:17:52;100818.25;;;6.87;97.51
74327;BME280;62745;51.060;13.786;2023-04-30T03:20:18;100819.38;;;6.77;97.30
74327;BME280;62745;51.060;13.786;2023-04-30T03:22:43;100820.13;;;6.69;97.29
74327;BME280;62745;51.060;13.786;2023-04-30T03:25:09;100826.66;;;6.57;97.68
74327;BME280;62745;51.060;13.786;2023-04-30T03:27:34;100831.88;;;6.49;97.71
74327;BME280;62745;51.060;13.786;2023-04-30T03:29:59;100826.66;;;6.57;97.87
74327;BME280;62745;51.060;13.786;2023-04-30T03:32:25;100833.03;;;6.46;97.30
74327;BME280;62745;51.060;13.786;2023-04-30T03:34:50;100835.66;;;6.46;97.20
74327;BME280;62745;51.060;13.786;2023-04-30T03:37:15;100845.00;;;6.50;97.47
74327;BME280;62745;51.060;13.786;2023-04-30T03:39:40;100838.09;;;6.40;97.04
74327;BME280;62745;51.060;13.786;2023-04-30T03:42:06;100854.09;;;6.48;96.69
74327;BME280;62745;51.060;13.786;2023-04-30T03:44:31;100847.88;;;6.39;97.32
74327;BME280;62745;51.060;13.786;2023-04-30T03:46:59;100844.25;;;6.76;96.15
74327;BME280;62745;51.060;13.786;2023-04-30T03:49:24;100853.03;;;6.41;96.13
74327;BME280;62745;51.060;13.786;2023-04-30T03:51:50;100856.44;;;6.33;97.64
74327;BME280;62745;51.060;13.786;2023-04-30T03:54:15;100858.56;;;6.29;97.46
74327;BME280;62745;51.060;13.786;2023-04-30T03:56:40;100857.25;;;6.16;97.41
74327;BME280;62745;51.060;13.786;2023-04-30T03:59:05;100856.38;;;6.43;97.75
74327;BME280;62745;51.060;13.786;2023-04-30T04:01:31;100861.16;;;6.57;96.75
74327;BME280;62745;51.060;13.786;2023-04-30T04:03:57;100872.81;;;6.46;96.18
74327;BME280;62745;51.060;13.786;2023-04-30T04:06:22;100872.63;;;6.75;95.87
74327;BME280;62745;51.060;13.786;2023-04-30T04:08:48;100878.16;;;6.64;95.88
74327;BME280;62745;51.060;13.786;2023-04-30T04:11:13;100880.19;;;6.70;95.45
74327;BME280;62745;51.060;13.786;2023-04-30T04:13:38;100873.66;;;6.47;95.88
74327;BME280;62745;51.060;13.786;2023-04-30T04:16:03;100885.91;;;6.57;96.05
74327;BME280;62745;51.060;13.786;2023-04-30T04:18:29;100887.31;;;6.52;96.50
74327;BME280;62745;51.060;13.786;2023-04-30T04:20:54;100884.13;;;6.84;95.37
74327;BME280;62745;51.060;13.786;2023-04-30T04:23:20;100882.56;;;6.73;94.92
74327;BME280;62745;51.060;13.786;2023-04-30T04:25:45;100890.44;;;6.65;95.14
74327;BME280;62745;51.060;13.786;2023-04-30T04:28:13;100900.00;;;6.58;95.41
74327;BME280;62745;51.060;13.786;2023-04-30T04:30:38;100902.41;;;6.69;95.46
74327;BME280;62745;51.060;13.786;2023-04-30T04:33:04;100904.09;;;6.70;95.04
74327;BME280;62745;51.060;13.786;2023-04-30T04:35:29;100894.44;;;6.51;95.38
74327;BME280;62745;51.060;13.786;2023-04-30T04:37:55;100914.19;;;6.67;94.94
74327;BME280;62745;51.060;13.786;2023-04-30T04:40:20;100913.44;;;6.56;95.15
74327;BME280;62745;51.060;13.786;2023-04-30T04:42:48;100915.25;;;6.56;94.46
74327;BME280;62745;51.060;13.786;2023-04-30T04:45:14;100914.47;;;6.46;94.00
74327;BME280;62745;51.060;13.786;2023-04-30T04:47:40;100914.84;;;6.51;95.57
74327;BME280;62745;51.060;13.786;2023-04-30T04:50:06;100920.16;;;6.51;94.91
74327;BME280;62745;51.060;13.786;2023-04-30T04:52:31;100933.22;;;6.62;94.66
74327;BME280;62745;51.060;13.786;2023-04-30T04:54:57;100936.25;;;6.67;94.81
74327;BME280;62745;51.060;13.786;2023-04-30T04:57:22;100935.22;;;6.78;94.12
74327;BME280;62745;51.060;13.786;2023-04-30T04:59:47;100939.75;;;6.85;93.36
74327;BME280;62745;51.060;13.786;2023-04-30T05:02:12;100938.38;;;6.99;92.84
74327;BME280;62745;51.060;13.786;2023-04-30T05:04:38;100946.88;;;7.03;93.25
74327;BME280;62745;51.060;13.786;2023-04-30T05:07:03;100940.75;;;7.02;93.14
74327;BME280;62745;51.060;13.786;2023-04-30T05:09:28;100939.88;;;7.19;92.41
74327;BME280;62745;51.060;13.786;2023-04-30T05:11:53;100935.19;;;7.31;91.74
74327;BME280;62745;51.060;13.786;2023-04-30T05:14:19;100950.09;;;7.24;91.24
74327;BME280;62745;51.060;13.786;2023-04-30T05:16:45;100938.66;;;7.32;90.95
74327;BME280;62745;51.060;13.786;2023-04-30T05:19:10;100946.72;;;7.22;91.87
74327;BME280;62745;51.060;13.786;2023-04-30T05:21:35;100953.81;;;6.96;91.37
74327;BME280;62745;51.060;13.786;2023-04-30T05:24:01;100956.53;;;6.86;91.47
74327;BME280;62745;51.060;13.786;2023-04-30T05:26:27;100965.03;;;7.07;91.61
74327;BME280;62745;51.060;13.786;2023-04-30T05:28:52;100966.72;;;7.08;91.88
74327;BME280;62745;51.060;13.786;2023-04-30T05:31:18;100955.63;;;7.13;90.75
74327;BME280;62745;51.060;13.786;2023-04-30T05:33:43;100964.22;;;7.24;91.05
74327;BME280;62745;51.060;13.786;2023-04-30T05:36:09;100974.00;;;7.06;90.80
74327;BME280;62745;51.060;13.786;2023-04-30T05:38:34;100973.97;;;6.88;90.81
74327;BME280;62745;51.060;13.786;2023-04-30T05:41:00;100972.38;;;6.78;91.14
74327;BME280;62745;51.060;13.786;2023-04-30T05:43:25;100967.44;;;6.83;91.56
74327;BME280;62745;51.060;13.786;2023-04-30T05:45:50;100971.09;;;6.82;91.19
74327;BME280;62745;51.060;13.786;2023-04-30T05:48:16;100974.00;;;7.06;91.27
74327;BME280;62745;51.060;13.786;2023-04-30T05:50:41;100979.06;;;7.17;90.85
74327;BME280;62745;51.060;13.786;2023-04-30T05:53:07;100964.50;;;7.65;92.65
74327;BME280;62745;51.060;13.786;2023-04-30T05:55:32;100972.09;;;7.78;87.61
74327;BME280;62745;51.060;13.786;2023-04-30T05:57:58;100973.63;;;7.89;88.83
74327;BME280;62745;51.060;13.786;2023-04-30T06:00:23;100972.34;;;7.93;90.45
74327;BME280;62745;51.060;13.786;2023-04-30T06:02:49;100980.25;;;8.10;91.17
74327;BME280;62745;51.060;13.786;2023-04-30T06:05:14;100975.38;;;7.98;87.67
74327;BME280;62745;51.060;13.786;2023-04-30T06:07:39;100982.34;;;7.99;89.15
74327;BME280;62745;51.060;13.786;2023-04-30T06:10:05;100977.94;;;8.15;89.71
74327;BME280;62745;51.060;13.786;2023-04-30T06:12:31;100979.28;;;8.20;91.06
74327;BME280;62745;51.060;13.786;2023-04-30T06:14:56;100976.06;;;8.34;87.60
74327;BME280;62745;51.060;13.786;2023-04-30T06:17:22;100973.41;;;8.34;87.87
74327;BME280;62745;51.060;13.786;2023-04-30T06:19:47;100979.56;;;8.34;87.68
74327;BME280;62745;51.060;13.786;2023-04-30T06:22:12;100972.31;;;8.19;84.45
74327;BME280;62745;51.060;13.786;2023-04-30T06:24:38;100978.53;;;8.69;87.85
74327;BME280;62745;51.060;13.786;2023-04-30T06:27:03;100975.81;;;8.53;85.36
74327;BME280;62745;51.060;13.786;2023-04-30T06:29:28;100985.69;;;8.61;83.18
74327;BME280;62745;51.060;13.786;2023-04-30T06:31:54;100978.72;;;8.76;87.47
74327;BME280;62745;51.060;13.786;2023-04-30T06:34:22;100975.78;;;8.45;82.26
74327;BME280;62745;51.060;13.786;2023-04-30T06:36:49;100973.78;;;7.87;84.15
74327;BME280;62745;51.060;13.786;2023-04-30T06:39:15;100981.13;;;7.67;84.97
74327;BME280;62745;51.060;13.786;2023-04-30T06:41:40;100984.91;;;7.57;84.94
74327;BME280;62745;51.060;13.786;2023-04-30T06:44:07;100978.78;;;7.64;84.68
74327;BME280;62745;51.060;13.786;2023-04-30T06:46:32;100963.47;;;7.58;84.24
74327;BME280;62745;51.060;13.786;2023-04-30T06:48:59;100969.94;;;7.81;84.30
74327;BME280;62745;51.060;13.786;2023-04-30T06:51:24;100980.97;;;8.21;83.01
74327;BME280;62745;51.060;13.786;2023-04-30T06:53:50;100978.13;;;8.48;82.22
74327;BME280;62745;51.060;13.786;2023-04-30T06:56:22;100986.09;;;8.90;81.38
74327;BME280;62745;51.060;13.786;2023-04-30T06:58:57;100972.41;;;8.85;80.21
74327;BME280;62745;51.060;13.786;2023-04-30T07:01:23;100978.47;;;9.12;79.54
74327;BME280;62745;51.060;13.786;2023-04-30T07:03:48;100972.63;;;9.08;79.63
74327;BME280;62745;51.060;13.786;2023-04-30T07:06:15;100984.72;;;8.86;78.36
74327;BME280;62745;51.060;13.786;2023-04-30T07:08:40;100981.03;;;8.63;79.57
74327;BME280;62745;51.060;13.786;2023-04-30T07:11:07;100983.78;;;8.45;79.61
74327;BME280;62745;51.060;13.786;2023-04-30T07:13:33;100988.72;;;8.74;78.98
74327;BME280;62745;51.060;13.786;2023-04-30T07:15:58;100986.22;;;8.81;79.13
74327;BME280;62745;51.060;13.786;2023-04-30T07:18:23;100976.59;;;9.04;79.61
74327;BME280;62745;51.060;13.786;2023-04-30T07:20:48;100983.44;;;8.90;78.52
74327;BME280;62745;51.060;13.786;2023-04-30T07:23:14;100996.75;;;8.90;77.80
74327;BME280;62745;51.060;13.786;2023-04-30T07:25:39;100989.94;;;8.96;77.50
74327;BME280;62745;51.060;13.786;2023-04-30T07:28:04;100983.97;;;9.18;78.58
74327;BME280;62745;51.060;13.786;2023-04-30T07:30:30;100981.63;;;9.15;78.03
74327;BME280;62745;51.060;13.786;2023-04-30T07:32:55;100991.13;;;9.18;77.19
74327;BME280;62745;51.060;13.786;2023-04-30T07:35:21;100983.09;;;9.01;77.74
74327;BME280;62745;51.060;13.786;2023-04-30T07:37:46;100986.94;;;8.99;78.16
74327;BME280;62745;51.060;13.786;2023-04-30T07:40:12;100987.66;;;9.42;77.26
74327;BME280;62745;51.060;13.786;2023-04-30T07:42:40;101002.44;;;10.01;76.28
74327;BME280;62745;51.060;13.786;2023-04-30T07:45:06;100997.97;;;9.69;74.98
74327;BME280;62745;51.060;13.786;2023-04-30T07:47:32;100990.06;;;10.16;76.41
74327;BME280;62745;51.060;13.786;2023-04-30T07:49:57;101002.31;;;9.78;75.15
74327;BME280;62745;51.060;13.786;2023-04-30T07:52:22;101005.78;;;9.95;74.27
74327;BME280;62745;51.060;13.786;2023-04-30T07:54:47;101002.63;;;9.91;75.60
74327;BME280;62745;51.060;13.786;2023-04-30T07:57:13;101007.78;;;10.01;73.22
74327;BME280;62745;51.060;13.786;2023-04-30T07:59:38;101012.66;;;9.65;74.08
74327;BME280;62745;51.060;13.786;2023-04-30T08:02:03;101007.13;;;9.83;75.12
74327;BME280;62745;51.060;13.786;2023-04-30T08:04:28;101001.84;;;10.38;74.80
74327;BME280;62745;51.060;13.786;2023-04-30T08:06:54;100994.16;;;10.82;72.12
74327;BME280;62745;51.060;13.786;2023-04-30T08:09:19;100996.22;;;11.26;70.65
74327;BME280;62745;51.060;13.786;2023-04-30T08:11:57;101006.78;;;10.97;69.76
74327;BME280;62745;51.060;13.786;2023-04-30T08:14:22;101005.75;;;10.11;71.70
74327;BME280;62745;51.060;13.786;2023-04-30T08:16:47;100996.22;;;10.17;72.00
74327;BME280;62745;51.060;13.786;2023-04-30T08:19:13;100997.22;;;10.32;72.39
74327;BME280;62745;51.060;13.786;2023-04-30T08:21:38;101010.75;;;10.31;71.48
74327;BME280;62745;51.060;13.786;2023-04-30T08:24:04;101000.94;;;9.99;72.49
74327;BME280;62745;51.060;13.786;2023-04-30T08:26:29;101008.38;;;10.19;72.82
74327;BME280;62745;51.060;13.786;2023-04-30T08:28:54;101006.72;;;10.35;71.28
74327;BME280;62745;51.060;13.786;2023-04-30T08:31:20;101002.13;;;9.96;71.91
74327;BME280;62745;51.060;13.786;2023-04-30T08:33:45;101013.97;;;9.53;72.74
74327;BME280;62745;51.060;13.786;2023-04-30T08:36:10;101021.31;;;9.75;74.01
74327;BME280;62745;51.060;13.786;2023-04-30T08:38:36;101006.25;;;10.15;72.03
74327;BME280;62745;51.060;13.786;2023-04-30T08:41:12;101017.09;;;10.69;67.70
74327;BME280;62745;51.060;13.786;2023-04-30T08:43:38;101007.66;;;10.50;68.89
74327;BME280;62745;51.060;13.786;2023-04-30T08:46:04;101014.31;;;10.62;69.37
74327;BME280;62745;51.060;13.786;2023-04-30T08:48:30;101013.19;;;10.48;68.67
74327;BME280;62745;51.060;13.786;2023-04-30T08:51:01;100987.94;;;9.87;69.99
74327;BME280;62745;51.060;13.786;2023-04-30T08:53:36;101012.13;;;10.58;70.00
74327;BME280;62745;51.060;13.786;2023-04-30T08:56:03;101011.38;;;11.11;68.72
74327;BME280;62745;51.060;13.786;2023-04-30T08:58:28;101015.34;;;11.84;67.66
74327;BME280;62745;51.060;13.786;2023-04-30T09:00:53;101011.69;;;12.14;63.61
74327;BME280;62745;51.060;13.786;2023-04-30T09:03:19;101016.53;;;11.35;66.10
74327;BME280;62745;51.060;13.786;2023-04-30T09:05:46;101015.97;;;10.63;67.59
74327;BME280;62745;51.060;13.786;2023-04-30T09:08:16;101007.53;;;10.35;68.60
74327;BME280;62745;51.060;13.786;2023-04-30T09:10:42;101015.81;;;10.57;69.18
74327;BME280;62745;51.060;13.786;2023-04-30T09:13:08;101002.81;;;10.84;68.61
74327;BME280;62745;51.060;13.786;2023-04-30T09:15:35;101021.28;;;11.25;67.90
74327;BME280;62745;51.060;13.786;2023-04-30T09:18:15;101013.50;;;11.38;67.61
74327;BME280;62745;51.060;13.786;2023-04-30T09:20:59;101017.72;;;11.10;66.28
74327;BME280;62745;51.060;13.786;2023-04-30T09:23:28;101021.88;;;11.35;66.73
74327;BME280;62745;51.060;13.786;2023-04-30T09:26:20;101011.03;;;12.42;64.45
74327;BME280;62745;51.060;13.786;2023-04-30T09:28:54;101014.94;;;12.90;61.52
74327;BME280;62745;51.060;13.786;2023-04-30T09:31:23;101009.91;;;12.07;62.00
74327;BME280;62745;51.060;13.786;2023-04-30T09:33:51;101013.59;;;11.68;63.48
74327;BME280;62745;51.060;13.786;2023-04-30T09:36:18;101022.34;;;11.85;64.06
74327;BME280;62745;51.060;13.786;2023-04-30T09:38:43;101008.72;;;12.39;61.30
74327;BME280;62745;51.060;13.786;2023-04-30T09:41:26;101010.25;;;13.28;59.82
74327;BME280;62745;51.060;13.786;2023-04-30T09:43:52;101009.34;;;12.70;59.80
74327;BME280;62745;51.060;13.786;2023-04-30T09:46:18;101007.44;;;13.00;59.00
74327;BME280;62745;51.060;13.786;2023-04-30T09:48:43;101005.84;;;11.96;60.41
74327;BME280;62745;51.060;13.786;2023-04-30T09:51:09;101004.38;;;11.70;61.65
74327;BME280;62745;51.060;13.786;2023-04-30T09:53:36;101001.56;;;12.75;60.62
74327;BME280;62745;51.060;13.786;2023-04-30T09:56:06;101002.53;;;13.04;60.59
74327;BME280;62745;51.060;13.786;2023-04-30T09:58:35;101000.94;;;12.58;58.71
74327;BME280;62745;51.060;13.786;2023-04-30T10:01:04;101004.66;;;12.43;58.46
74327;BME280;62745;51.060;13.786;2023-04-30T10:03:30;100991.44;;;12.56;57.83
74327;BME280;62745;51.060;13.786;2023-04-30T10:05:56;100984.25;;;12.12;58.64
74327;BME280;62745;51.060;13.786;2023-04-30T10:08:31;100992.00;;;12.22;60.04
74327;BME280;62745;51.060;13.786;2023-04-30T10:11:03;100984.38;;;13.06;55.86
74327;BME280;62745;51.060;13.786;2023-04-30T10:13:42;100980.59;;;13.36;56.50
74327;BME280;62745;51.060;13.786;2023-04-30T10:16:36;100970.78;;;14.40;54.42
74327;BME280;62745;51.060;13.786;2023-04-30T10:19:12;100977.00;;;14.89;53.31
74327;BME280;62745;51.060;13.786;2023-04-30T10:21:41;100979.75;;;15.02;51.88
74327;BME280;62745;51.060;13.786;2023-04-30T10:24:11;100972.53;;;14.48;54.24
74327;BME280;62745;51.060;13.786;2023-04-30T10:26:37;100976.25;;;12.78;55.81
74327;BME280;62745;51.060;13.786;2023-04-30T10:29:04;100981.25;;;12.66;56.22
74327;BME280;62745;51.060;13.786;2023-04-30T10:31:31;100972.44;;;13.08;55.57
74327;BME280;62745;51.060;13.786;2023-04-30T10:37:05;100972.28;;;12.74;53.08
74327;BME280;62745;51.060;13.786;2023-04-30T10:39:32;100967.06;;;12.51;55.33
74327;BME280;62745;51.060;13.786;2023-04-30T10:42:03;100964.84;;;12.40;55.42
74327;BME280;62745;51.060;13.786;2023-04-30T10:44:31;100974.72;;;12.24;55.13
74327;BME280;62745;51.060;13.786;2023-04-30T10:46:59;100963.44;;;12.94;56.88
74327;BME280;62745;51.060;13.786;2023-04-30T10:49:25;100961.75;;;13.79;51.50
74327;BME280;62745;51.060;13.786;2023-04-30T10:51:51;100960.66;;;14.36;53.27
74327;BME280;62745;51.060;13.786;2023-04-30T10:54:24;100956.41;;;14.55;52.12
74327;BME280;62745;51.060;13.786;2023-04-30T10:56:50;100963.75;;;14.39;52.60
74327;BME280;62745;51.060;13.786;2023-04-30T10:59:16;100959.00;;;13.72;51.90
74327;BME280;62745;51.060;13.786;2023-04-30T11:01:56;100961.06;;;13.70;52.02
74327;BME280;62745;51.060;13.786;2023-04-30T11:04:22;100961.16;;;13.55;51.99
74327;BME280;62745;51.060;13.786;2023-04-30T11:07:08;100951.25;;;13.56;50.98
74327;BME280;62745;51.060;13.786;2023-04-30T11:09:37;100953.81;;;13.43;50.86
74327;BME280;62745;51.060;13.786;2023-04-30T11:12:19;100946.28;;;13.81;50.07
74327;BME280;62745;51.060;13.786;2023-04-30T11:14:46;100943.69;;;13.94;50.67
74327;BME280;62745;51.060;13.786;2023-04-30T11:17:22;100951.44;;;14.52;50.17
74327;BME280;62745;51.060;13.786;2023-04-30T11:19:52;100932.38;;;14.05;50.49
74327;BME280;62745;51.060;13.786;2023-04-30T11:22:21;100948.25;;;13.72;51.26
74327;BME280;62745;51.060;13.786;2023-04-30T11:25:04;100949.50;;;13.70;50.25
74327;BME280;62745;51.060;13.786;2023-04-30T11:27:31;100938.56;;;14.06;48.59
74327;BME280;62745;51.060;13.786;2023-04-30T11:29:58;100941.75;;;13.88;48.76
74327;BME280;62745;51.060;13.786;2023-04-30T11:32:26;100938.84;;;14.52;50.82
74327;BME280;62745;51.060;13.786;2023-04-30T11:34:56;100943.66;;;14.77;49.21
74327;BME280;62745;51.060;13.786;2023-04-30T11:37:32;100942.31;;;15.14;45.62
74327;BME280;62745;51.060;13.786;2023-04-30T11:40:02;100947.28;;;15.43;46.04
74327;BME280;62745;51.060;13.786;2023-04-30T11:42:29;100943.94;;;15.01;45.38
74327;BME280;62745;51.060;13.786;2023-04-30T11:45:08;100944.59;;;15.37;45.10
74327;BME280;62745;51.060;13.786;2023-04-30T11:47:38;100944.53;;;16.16;45.88
74327;BME280;62745;51.060;13.786;2023-04-30T11:50:04;100946.66;;;15.54;46.71
74327;BME280;62745;51.060;13.786;2023-04-30T11:52:29;100933.03;;;16.40;44.96
74327;BME280;62745;51.060;13.786;2023-04-30T11:54:54;100930.81;;;16.82;46.64
74327;BME280;62745;51.060;13.786;2023-04-30T11:57:21;100923.13;;;17.10;44.15
74327;BME280;62745;51.060;13.786;2023-04-30T11:59:47;100927.09;;;16.25;43.75
74327;BME280;62745;51.060;13.786;2023-04-30T12:02:14;100922.00;;;15.90;42.34
74327;BME280;62745;51.060;13.786;2023-04-30T12:04:42;100935.66;;;14.96;44.11
74327;BME280;62745;51.060;13.786;2023-04-30T12:07:07;100918.28;;;15.39;44.42
74327;BME280;62745;51.060;13.786;2023-04-30T12:09:50;100921.41;;;15.82;43.48
74327;BME280;62745;51.060;13.786;2023-04-30T12:12:25;100907.13;;;16.39;42.74
74327;BME280;62745;51.060;13.786;2023-04-30T12:14:51;100909.84;;;16.77;41.94
74327;BME280;62745;51.060;13.786;2023-04-30T12:17:32;100901.41;;;16.61;41.88
74327;BME280;62745;51.060;13.786;2023-04-30T12:19:57;100907.22;;;17.02;40.55
74327;BME280;62745;51.060;13.786;2023-04-30T12:22:23;100910.50;;;16.21;42.24
74327;BME280;62745;51.060;13.786;2023-04-30T12:24:48;100908.19;;;16.83;42.30
74327;BME280;62745;51.060;13.786;2023-04-30T12:27:14;100897.66;;;16.62;41.13
74327;BME280;62745;51.060;13.786;2023-04-30T12:29:42;100897.25;;;16.71;41.39
74327;BME280;62745;51.060;13.786;2023-04-30T12:32:09;100898.00;;;18.21;41.56
74327;BME280;62745;51.060;13.786;2023-04-30T12:34:37;100895.88;;;17.19;39.59
74327;BME280;62745;51.060;13.786;2023-04-30T12:37:02;100897.28;;;19.58;37.95
74327;BME280;62745;51.060;13.786;2023-04-30T12:39:32;100895.31;;;18.21;37.64
74327;BME280;62745;51.060;13.786;2023-04-30T12:41:59;100893.34;;;17.73;36.84
74327;BME280;62745;51.060;13.786;2023-04-30T12:44:26;100883.94;;;18.49;35.62
74327;BME280;62745;51.060;13.786;2023-04-30T12:46:55;100882.81;;;18.39;35.69
74327;BME280;62745;51.060;13.786;2023-04-30T12:49:26;100880.97;;;19.11;36.01
74327;BME280;62745;51.060;13.786;2023-04-30T12:51:57;100883.81;;;18.74;36.02
74327;BME280;62745;51.060;13.786;2023-04-30T12:54:32;100873.56;;;20.40;35.66
74327;BME280;62745;51.060;13.786;2023-04-30T12:56:59;100882.19;;;19.50;33.76